createdAt,value
2022-12-26T00:01:25.210Z,4.84
2022-12-26T00:03:53.920Z,4.76
2022-12-26T00:06:24.709Z,4.81
2022-12-26T00:08:53.430Z,4.57
2022-12-26T00:11:22.390Z,4.53
2022-12-26T00:13:55.127Z,4.61
2022-12-26T00:16:23.531Z,4.71
2022-12-26T00:18:52.072Z,4.65
2022-12-26T00:21:20.360Z,4.61
2022-12-26T00:23:48.600Z,4.49
2022-12-26T00:26:19.524Z,4.67
2022-12-26T00:28:48.492Z,4.56
2022-12-26T00:31:18.509Z,4.51
2022-12-26T00:33:46.976Z,4.51
2022-12-26T00:36:20.171Z,4.44
2022-12-26T00:38:48.441Z,4.50
2022-12-26T00:41:17.921Z,4.55
2022-12-26T00:43:46.196Z,4.57
2022-12-26T00:46:15.070Z,4.55
2022-12-26T00:48:43.347Z,4.64
2022-12-26T00:51:11.332Z,4.47
2022-12-26T00:53:39.441Z,4.60
2022-12-26T00:56:07.510Z,4.52
2022-12-26T00:58:35.664Z,4.61
2022-12-26T01:01:34.225Z,4.42
2022-12-26T01:04:02.381Z,4.55
2022-12-26T01:06:30.815Z,4.51
2022-12-26T01:08:59.672Z,4.54
2022-12-26T01:11:42.970Z,4.66
2022-12-26T01:14:15.197Z,4.62
2022-12-26T01:16:44.833Z,4.53
2022-12-26T01:19:13.494Z,4.50
2022-12-26T01:21:43.134Z,4.68
2022-12-26T01:24:11.369Z,4.76
2022-12-26T01:26:38.992Z,4.73
2022-12-26T01:29:06.958Z,4.85
2022-12-26T01:31:34.668Z,4.71
2022-12-26T01:34:02.549Z,4.72
2022-12-26T01:36:30.198Z,4.92
2022-12-26T01:38:58.164Z,4.82
2022-12-26T01:41:26.585Z,4.91
2022-12-26T01:44:02.078Z,4.87
2022-12-26T01:46:43.970Z,4.92
2022-12-26T01:49:36.828Z,4.90
2022-12-26T01:52:08.643Z,4.72
2022-12-26T01:54:42.857Z,4.60
2022-12-26T01:57:20.478Z,4.84
2022-12-26T01:59:50.375Z,4.92
2022-12-26T02:02:20.898Z,5.00
2022-12-26T02:05:10.862Z,4.94
2022-12-26T02:07:44.261Z,4.86
2022-12-26T02:10:17.967Z,4.87
2022-12-26T02:12:46.781Z,4.88
2022-12-26T02:15:17.671Z,4.95
2022-12-26T02:17:47.583Z,4.83
2022-12-26T02:20:24.409Z,4.95
2022-12-26T02:23:04.278Z,4.87
2022-12-26T02:26:03.062Z,4.82
2022-12-26T02:28:39.576Z,4.87
2022-12-26T02:31:37.155Z,4.78
2022-12-26T02:34:14.823Z,4.78
2022-12-26T02:37:21.353Z,4.83
2022-12-26T02:40:23.828Z,4.77
2022-12-26T02:43:10.633Z,4.78
2022-12-26T02:46:01.344Z,4.66
2022-12-26T02:48:49.791Z,4.68
2022-12-26T02:51:54.266Z,4.58
2022-12-26T02:55:05.090Z,4.60
2022-12-26T02:58:21.151Z,4.47
2022-12-26T03:01:14.411Z,4.43
2022-12-26T03:04:04.541Z,4.45
2022-12-26T03:06:54.751Z,4.33
2022-12-26T03:09:49.726Z,4.44
2022-12-26T03:13:03.216Z,4.54
2022-12-26T03:15:54.401Z,4.39
2022-12-26T03:18:58.735Z,4.32
2022-12-26T03:21:14.386Z,4.29
2022-12-26T03:23:45.989Z,4.35
2022-12-26T03:26:38.853Z,4.43
2022-12-26T03:29:35.254Z,4.38
2022-12-26T03:32:08.358Z,4.32
2022-12-26T03:34:43.792Z,4.43
2022-12-26T03:37:49.234Z,4.31
2022-12-26T03:40:59.208Z,4.44
2022-12-26T03:44:43.018Z,4.38
2022-12-26T03:47:34.132Z,4.37
2022-12-26T03:50:50.463Z,4.35
2022-12-26T03:54:14.210Z,4.30
2022-12-26T03:57:09.733Z,4.20
2022-12-26T04:00:07.492Z,4.26
2022-12-26T04:03:02.494Z,4.17
2022-12-26T04:05:50.845Z,4.38
2022-12-26T04:08:50.046Z,4.35
2022-12-26T04:11:40.351Z,4.31
2022-12-26T04:14:51.166Z,4.30
2022-12-26T04:17:52.025Z,4.32
2022-12-26T04:20:47.080Z,4.27
2022-12-26T04:24:01.140Z,4.30
2022-12-26T04:27:00.564Z,4.26
2022-12-26T04:29:48.002Z,4.28
2022-12-26T04:32:57.465Z,4.30
2022-12-26T04:35:57.689Z,4.24
2022-12-26T04:38:48.856Z,4.25
2022-12-26T04:41:37.755Z,4.17
2022-12-26T04:44:06.874Z,4.21
2022-12-26T04:46:38.763Z,4.27
2022-12-26T04:49:27.631Z,4.24
2022-12-26T04:52:00.463Z,4.24
2022-12-26T04:54:28.917Z,4.24
2022-12-26T04:56:56.961Z,4.27
2022-12-26T04:59:25.941Z,4.28
2022-12-26T05:02:12.245Z,4.30
2022-12-26T05:04:58.772Z,4.20
2022-12-26T05:07:49.371Z,4.27
2022-12-26T05:10:26.524Z,4.24
2022-12-26T05:12:55.467Z,4.28
2022-12-26T05:15:23.566Z,4.19
2022-12-26T05:18:10.481Z,4.24
2022-12-26T05:20:46.567Z,4.22
2022-12-26T05:23:43.317Z,4.24
2022-12-26T05:26:42.284Z,4.20
2022-12-26T05:29:10.373Z,4.12
2022-12-26T05:31:38.165Z,4.17
2022-12-26T05:34:16.017Z,4.15
2022-12-26T05:36:53.269Z,4.21
2022-12-26T05:39:21.186Z,4.11
2022-12-26T05:41:48.954Z,4.09
2022-12-26T05:44:17.087Z,4.09
2022-12-26T05:46:46.937Z,4.13
2022-12-26T05:49:15.930Z,4.15
2022-12-26T05:51:43.599Z,4.16
2022-12-26T05:54:11.624Z,4.17
2022-12-26T05:56:41.912Z,4.16
2022-12-26T05:59:14.143Z,4.11
2022-12-26T06:01:41.855Z,4.15
2022-12-26T06:04:09.843Z,4.19
2022-12-26T06:06:37.484Z,4.21
2022-12-26T06:09:05.394Z,4.15
2022-12-26T06:11:33.022Z,4.21
2022-12-26T06:14:02.032Z,4.18
2022-12-26T06:16:29.729Z,4.17
2022-12-26T06:18:57.974Z,4.21
2022-12-26T06:21:26.320Z,4.21
2022-12-26T06:23:54.249Z,4.15
2022-12-26T06:26:21.998Z,4.15
2022-12-26T06:28:50.305Z,4.22
2022-12-26T06:31:21.413Z,4.25
2022-12-26T06:33:54.398Z,4.21
2022-12-26T06:36:24.458Z,4.21
2022-12-26T06:38:53.995Z,4.25
2022-12-26T06:41:23.967Z,4.27
2022-12-26T06:43:52.291Z,4.27
2022-12-26T06:46:23.069Z,4.28
2022-12-26T06:48:52.218Z,4.33
2022-12-26T06:51:22.704Z,4.34
2022-12-26T06:53:52.104Z,4.31
2022-12-26T06:56:25.924Z,4.31
2022-12-26T06:58:54.843Z,4.39
2022-12-26T07:01:23.598Z,4.27
2022-12-26T07:03:55.616Z,4.38
2022-12-26T07:06:35.307Z,4.37
2022-12-26T07:09:17.231Z,4.47
2022-12-26T07:11:47.964Z,4.48
2022-12-26T07:14:16.607Z,4.42
2022-12-26T07:16:45.908Z,4.45
2022-12-26T07:19:15.349Z,4.27
2022-12-26T07:21:43.562Z,4.42
2022-12-26T07:24:19.704Z,4.42
2022-12-26T07:26:48.669Z,4.57
2022-12-26T07:29:17.003Z,4.45
2022-12-26T07:31:44.898Z,4.61
2022-12-26T07:34:12.977Z,4.56
2022-12-26T07:36:41.539Z,4.66
2022-12-26T07:39:09.503Z,4.59
2022-12-26T07:41:55.601Z,4.68
2022-12-26T07:44:23.863Z,4.64
2022-12-26T07:46:51.501Z,4.74
2022-12-26T07:49:19.494Z,4.72
2022-12-26T07:51:47.159Z,4.69
2022-12-26T07:54:16.105Z,4.74
2022-12-26T07:56:43.790Z,4.79
2022-12-26T07:59:17.130Z,4.79
2022-12-26T08:01:45.247Z,4.80
2022-12-26T08:04:13.870Z,4.88
2022-12-26T08:06:41.609Z,4.80
2022-12-26T08:09:16.015Z,4.84
2022-12-26T08:11:44.349Z,4.74
2022-12-26T08:14:14.184Z,4.89
2022-12-26T08:16:42.081Z,4.80
2022-12-26T08:19:10.804Z,4.94
2022-12-26T08:21:39.212Z,4.93
2022-12-26T08:24:07.358Z,5.11
2022-12-26T08:28:56.703Z,5.17
2022-12-26T08:33:57.148Z,5.18
2022-12-26T08:36:25.634Z,5.04
2022-12-26T08:38:53.785Z,5.06
2022-12-26T08:41:21.916Z,5.05
2022-12-26T08:44:25.761Z,5.18
2022-12-26T08:46:41.754Z,5.33
2022-12-26T08:49:09.488Z,5.25
2022-12-26T08:51:38.024Z,5.26
2022-12-26T08:54:06.192Z,5.33
2022-12-26T08:56:34.257Z,5.36
2022-12-26T08:59:02.004Z,5.46
2022-12-26T09:01:31.618Z,5.43
2022-12-26T09:04:02.525Z,5.45
2022-12-26T09:06:33.879Z,5.55
2022-12-26T09:09:02.339Z,5.56
2022-12-26T09:11:31.009Z,5.50
2022-12-26T09:14:01.078Z,5.53
2022-12-26T09:16:41.965Z,5.52
2022-12-26T09:19:17.674Z,5.64
2022-12-26T09:21:46.575Z,5.41
2022-12-26T09:24:17.180Z,5.53
2022-12-26T09:26:45.537Z,5.46
2022-12-26T09:29:14.177Z,5.45
2022-12-26T09:31:42.343Z,5.48
2022-12-26T09:34:10.116Z,5.47
2022-12-26T09:36:39.531Z,5.47
2022-12-26T09:39:07.480Z,5.57
2022-12-26T09:41:54.317Z,5.69
2022-12-26T09:44:51.099Z,5.63
2022-12-26T09:47:42.455Z,5.76
2022-12-26T09:50:10.114Z,5.79
2022-12-26T09:52:51.880Z,5.84
2022-12-26T09:55:35.338Z,5.84
2022-12-26T09:58:19.861Z,5.74
2022-12-26T10:01:15.332Z,5.75
2022-12-26T10:03:46.172Z,5.73
2022-12-26T10:06:18.495Z,5.81
2022-12-26T10:09:19.760Z,5.91
2022-12-26T10:12:05.617Z,5.86
2022-12-26T10:14:39.612Z,5.90
2022-12-26T10:17:34.427Z,5.98
2022-12-26T10:20:16.282Z,6.17
2022-12-26T10:23:19.610Z,6.21
2022-12-26T10:26:09.091Z,6.38
2022-12-26T10:29:02.396Z,6.34
2022-12-26T10:31:46.181Z,6.59
2022-12-26T10:34:39.828Z,6.68
2022-12-26T10:37:18.133Z,6.67
2022-12-26T10:39:56.008Z,6.63
2022-12-26T10:42:42.213Z,6.76
2022-12-26T10:45:32.209Z,6.84
2022-12-26T10:48:00.395Z,6.82
2022-12-26T10:50:30.915Z,6.93
2022-12-26T10:53:00.617Z,6.91
2022-12-26T10:55:35.159Z,7.06
2022-12-26T10:58:23.963Z,7.21
2022-12-26T11:00:51.859Z,7.29
2022-12-26T11:03:21.418Z,7.46
2022-12-26T11:06:08.537Z,7.60
2022-12-26T11:08:49.559Z,7.72
2022-12-26T11:11:48.530Z,7.77
2022-12-26T11:14:43.097Z,7.65
2022-12-26T11:17:29.564Z,7.64
2022-12-26T11:20:16.921Z,7.60
2022-12-26T11:22:45.787Z,7.49
2022-12-26T11:25:23.272Z,7.48
2022-12-26T11:27:54.719Z,7.46
2022-12-26T11:30:24.776Z,7.49
2022-12-26T11:33:13.493Z,7.54
2022-12-26T11:35:53.784Z,7.55
2022-12-26T11:38:38.975Z,7.54
2022-12-26T11:41:39.773Z,7.54
2022-12-26T11:44:10.639Z,7.59
2022-12-26T11:46:44.087Z,7.66
2022-12-26T11:49:33.101Z,7.80
2022-12-26T11:52:22.520Z,7.93
2022-12-26T11:54:51.259Z,7.97
2022-12-26T11:57:38.990Z,7.95
2022-12-26T12:00:18.922Z,7.85
2022-12-26T12:02:47.088Z,7.98
2022-12-26T12:05:39.875Z,8.14
2022-12-26T12:08:46.174Z,8.16
2022-12-26T12:11:31.222Z,8.18
2022-12-26T12:14:12.652Z,8.16
2022-12-26T12:16:59.244Z,8.14
2022-12-26T12:19:57.982Z,8.05
2022-12-26T12:22:40.837Z,7.88
2022-12-26T12:25:30.804Z,7.85
2022-12-26T12:28:25.633Z,7.84
2022-12-26T12:31:02.870Z,7.83
2022-12-26T12:33:38.804Z,7.83
2022-12-26T12:36:11.863Z,7.96
2022-12-26T12:38:56.317Z,8.06
2022-12-26T12:41:42.898Z,8.09
2022-12-26T12:44:36.340Z,8.11
2022-12-26T12:47:13.670Z,8.29
2022-12-26T12:50:09.046Z,8.32
2022-12-26T12:52:46.345Z,8.35
2022-12-26T12:55:32.289Z,8.44
2022-12-26T12:58:30.092Z,8.37
2022-12-26T13:01:16.089Z,8.45
2022-12-26T13:03:46.893Z,8.57
2022-12-26T13:06:25.457Z,8.68
2022-12-26T13:09:00.669Z,8.64
2022-12-26T13:11:37.655Z,8.70
2022-12-26T13:14:11.439Z,8.78
2022-12-26T13:16:43.923Z,8.81
2022-12-26T13:19:30.900Z,8.84
2022-12-26T13:22:04.369Z,8.93
2022-12-26T13:24:35.616Z,8.84
2022-12-26T13:27:21.490Z,8.99
2022-12-26T13:29:50.334Z,8.87
2022-12-26T13:32:24.682Z,9.00
2022-12-26T13:34:55.954Z,8.92
2022-12-26T13:37:39.040Z,8.89
2022-12-26T13:40:13.225Z,8.92
2022-12-26T13:43:14.349Z,8.89
2022-12-26T13:45:42.314Z,8.86
2022-12-26T13:48:19.002Z,8.92
2022-12-26T13:51:00.140Z,8.98
2022-12-26T13:53:37.316Z,8.93
2022-12-26T13:56:34.755Z,8.94
2022-12-26T13:59:08.319Z,8.79
2022-12-26T14:01:39.439Z,8.70
2022-12-26T14:04:48.743Z,8.64
2022-12-26T14:07:40.940Z,8.63
2022-12-26T14:10:30.010Z,8.68
2022-12-26T14:13:37.153Z,8.73
2022-12-26T14:16:18.002Z,8.69
2022-12-26T14:18:52.965Z,8.74
2022-12-26T14:21:47.593Z,8.80
2022-12-26T14:24:43.841Z,8.88
2022-12-26T14:27:17.308Z,8.80
2022-12-26T14:30:00.118Z,8.83
2022-12-26T14:32:46.404Z,8.83
2022-12-26T14:35:52.440Z,8.86
2022-12-26T14:38:44.651Z,8.83
2022-12-26T14:41:34.067Z,8.81
2022-12-26T14:44:20.701Z,8.79
2022-12-26T14:46:51.571Z,8.76
2022-12-26T14:49:40.538Z,8.65
2022-12-26T14:52:26.852Z,8.68
2022-12-26T14:54:55.908Z,8.62
2022-12-26T14:57:48.464Z,8.65
2022-12-26T15:00:22.169Z,8.65
2022-12-26T15:02:59.411Z,8.64
2022-12-26T15:05:32.798Z,8.74
2022-12-26T15:08:18.631Z,8.66
2022-12-26T15:10:55.259Z,8.69
2022-12-26T15:13:32.284Z,8.71
2022-12-26T15:16:21.971Z,8.73
2022-12-26T15:19:20.795Z,8.80
2022-12-26T15:22:19.540Z,8.67
2022-12-26T15:25:27.272Z,8.65
2022-12-26T15:27:57.654Z,8.70
2022-12-26T15:30:53.635Z,8.63
2022-12-26T15:33:30.860Z,8.62
2022-12-26T15:36:17.455Z,8.61
2022-12-26T15:38:57.591Z,8.64
2022-12-26T15:41:44.882Z,8.64
2022-12-26T15:44:26.656Z,8.60
2022-12-26T15:47:12.408Z,8.65
2022-12-26T15:50:10.860Z,8.61
2022-12-26T15:52:56.668Z,8.66
2022-12-26T15:55:34.503Z,8.61
2022-12-26T15:58:18.529Z,8.51
2022-12-26T16:00:52.235Z,8.60
2022-12-26T16:03:45.297Z,8.55
2022-12-26T16:06:20.589Z,8.59
2022-12-26T16:08:54.700Z,8.62
2022-12-26T16:11:31.353Z,8.60
2022-12-26T16:14:03.539Z,8.60
2022-12-26T16:16:37.277Z,8.60
2022-12-26T16:19:17.184Z,8.56
2022-12-26T16:22:07.912Z,8.53
2022-12-26T16:24:38.609Z,8.57
2022-12-26T16:27:09.495Z,8.64
2022-12-26T16:29:46.678Z,8.60
2022-12-26T16:32:18.995Z,8.76
2022-12-26T16:34:48.345Z,8.63
2022-12-26T16:37:23.077Z,8.54
2022-12-26T16:40:23.785Z,8.50
2022-12-26T16:43:22.283Z,8.53
2022-12-26T16:45:58.765Z,8.47
2022-12-26T16:48:29.564Z,8.39
2022-12-26T16:50:59.515Z,8.45
2022-12-26T16:53:47.399Z,8.48
2022-12-26T16:56:27.713Z,8.33
2022-12-26T16:59:16.983Z,8.39
2022-12-26T17:01:51.844Z,8.36
2022-12-26T17:04:23.093Z,8.41
2022-12-26T17:07:05.487Z,8.45
2022-12-26T17:09:45.319Z,8.49
2022-12-26T17:12:26.116Z,8.34
2022-12-26T17:14:55.807Z,8.37
2022-12-26T17:17:23.735Z,8.39
2022-12-26T17:19:54.964Z,8.40
2022-12-26T17:22:34.949Z,8.49
2022-12-26T17:25:17.964Z,8.49
2022-12-26T17:27:47.120Z,8.43
2022-12-26T17:30:32.070Z,8.58
2022-12-26T17:33:14.490Z,8.56
2022-12-26T17:36:44.789Z,8.59
2022-12-26T17:38:36.178Z,8.56
2022-12-26T17:41:05.941Z,8.55
2022-12-26T17:43:37.221Z,8.54
2022-12-26T17:46:07.138Z,8.56
2022-12-26T17:48:35.477Z,8.52
2022-12-26T17:51:11.829Z,8.65
2022-12-26T17:53:42.077Z,8.59
2022-12-26T17:56:28.290Z,8.72
2022-12-26T17:58:56.270Z,8.59
2022-12-26T18:01:23.993Z,8.72
2022-12-26T18:03:52.979Z,8.73
2022-12-26T18:06:22.070Z,8.75
2022-12-26T18:08:50.360Z,8.65
2022-12-26T18:11:18.119Z,8.62
2022-12-26T18:13:46.310Z,8.59
2022-12-26T18:16:19.983Z,8.58
2022-12-26T18:18:48.701Z,8.67
2022-12-26T18:21:16.993Z,8.71
2022-12-26T18:23:45.480Z,8.72
2022-12-26T18:26:26.649Z,8.74
2022-12-26T18:28:54.694Z,8.72
2022-12-26T18:31:22.460Z,8.70
2022-12-26T18:33:50.713Z,8.69
2022-12-26T18:36:19.444Z,8.62
2022-12-26T18:38:47.352Z,8.64
2022-12-26T18:41:16.963Z,8.75
2022-12-26T18:43:45.246Z,8.69
2022-12-26T18:46:31.154Z,8.66
2022-12-26T18:48:59.261Z,8.73
2022-12-26T18:51:30.103Z,8.75
2022-12-26T18:53:58.058Z,8.79
2022-12-26T18:56:26.267Z,8.74
2022-12-26T18:58:58.026Z,8.79
2022-12-26T19:01:26.770Z,8.76
2022-12-26T19:03:55.220Z,8.74
2022-12-26T19:06:28.321Z,8.80
2022-12-26T19:08:57.197Z,8.89
2022-12-26T19:11:25.460Z,8.89
2022-12-26T19:13:53.982Z,8.88
2022-12-26T19:16:23.192Z,8.83
2022-12-26T19:18:51.374Z,8.83
2022-12-26T19:21:19.079Z,8.86
2022-12-26T19:23:47.933Z,8.82
2022-12-26T19:26:17.701Z,8.78
2022-12-26T19:28:50.650Z,8.89
2022-12-26T19:31:18.472Z,8.82
2022-12-26T19:33:46.608Z,8.80
2022-12-26T19:36:14.833Z,8.85
2022-12-26T19:38:42.999Z,8.87
2022-12-26T19:41:13.860Z,8.85
2022-12-26T19:43:42.110Z,8.83
2022-12-26T19:46:13.186Z,8.82
2022-12-26T19:48:41.183Z,8.83
2022-12-26T19:51:13.634Z,8.81
2022-12-26T19:53:42.993Z,8.85
2022-12-26T19:56:13.351Z,8.93
2022-12-26T19:58:41.693Z,8.92
2022-12-26T20:01:30.750Z,8.96
2022-12-26T20:04:01.605Z,8.99
2022-12-26T20:06:31.136Z,9.12
2022-12-26T20:09:02.036Z,8.98
2022-12-26T20:11:33.024Z,9.02
2022-12-26T20:14:02.423Z,9.07
2022-12-26T20:17:03.796Z,9.00
2022-12-26T20:19:22.577Z,9.03
2022-12-26T20:21:50.831Z,8.98
2022-12-26T20:24:21.409Z,8.98
2022-12-26T20:26:50.304Z,8.95
2022-12-26T20:29:18.895Z,8.93
2022-12-26T20:31:46.904Z,8.89
2022-12-26T20:34:15.042Z,8.93
2022-12-26T20:36:42.816Z,8.92
2022-12-26T20:39:17.023Z,8.90
2022-12-26T20:41:44.588Z,8.93
2022-12-26T20:44:17.500Z,8.98
2022-12-26T20:46:45.964Z,8.94
2022-12-26T20:49:14.100Z,8.88
2022-12-26T20:51:43.772Z,8.94
2022-12-26T20:54:15.008Z,8.79
2022-12-26T20:56:43.531Z,8.85
2022-12-26T20:59:11.791Z,8.74
2022-12-26T21:01:40.374Z,8.80
2022-12-26T21:04:10.548Z,8.76
2022-12-26T21:06:38.767Z,8.67
2022-12-26T21:09:07.389Z,8.77
2022-12-26T21:11:38.273Z,8.84
2022-12-26T21:14:10.995Z,8.72
2022-12-26T21:16:48.211Z,8.64
2022-12-26T21:19:17.273Z,8.72
2022-12-26T21:21:47.674Z,8.60
2022-12-26T21:24:22.854Z,8.61
2022-12-26T21:26:50.866Z,8.66
2022-12-26T21:29:30.307Z,8.58
2022-12-26T21:31:59.278Z,8.75
2022-12-26T21:34:29.467Z,8.75
2022-12-26T21:37:17.075Z,8.59
2022-12-26T21:39:47.203Z,8.61
2022-12-26T21:42:15.127Z,8.54
2022-12-26T21:44:43.162Z,8.67
2022-12-26T21:47:10.889Z,8.55
2022-12-26T21:49:39.277Z,8.60
2022-12-26T21:52:07.753Z,8.61
2022-12-26T21:54:54.438Z,8.61
2022-12-26T21:57:23.114Z,8.57
2022-12-26T21:59:57.972Z,8.66
2022-12-26T22:02:56.265Z,8.66
2022-12-26T22:05:28.122Z,8.65
2022-12-26T22:08:01.411Z,8.56
2022-12-26T22:10:50.971Z,8.50
2022-12-26T22:13:19.923Z,8.54
2022-12-26T22:16:09.118Z,8.47
2022-12-26T22:18:43.363Z,8.58
2022-12-26T22:21:15.901Z,8.62
2022-12-26T22:23:44.752Z,8.54
2022-12-26T22:26:14.769Z,8.54
2022-12-26T22:28:43.442Z,8.66
2022-12-26T22:31:18.653Z,8.57
2022-12-26T22:33:46.601Z,8.42
2022-12-26T22:36:14.928Z,8.29
2022-12-26T22:38:42.631Z,8.27
2022-12-26T22:41:11.007Z,8.30
2022-12-26T22:43:38.707Z,8.27
2022-12-26T22:46:07.342Z,8.30
2022-12-26T22:48:35.192Z,8.31
2022-12-26T22:51:03.121Z,8.23
2022-12-26T22:53:31.273Z,8.23
2022-12-26T22:56:05.399Z,8.03
2022-12-26T22:58:33.820Z,8.03
2022-12-26T23:01:01.858Z,7.82
2022-12-26T23:03:29.889Z,7.76
2022-12-26T23:05:58.054Z,7.56
2022-12-26T23:08:28.122Z,7.64
2022-12-26T23:10:58.426Z,7.80
2022-12-26T23:13:28.099Z,7.94
2022-12-26T23:16:04.461Z,7.95
2022-12-26T23:19:18.883Z,7.93
2022-12-26T23:21:50.395Z,7.79
2022-12-26T23:24:27.051Z,7.71
2022-12-26T23:27:18.143Z,7.64
2022-12-26T23:30:04.643Z,7.61
2022-12-26T23:32:33.218Z,7.50
2022-12-26T23:35:00.946Z,7.43
2022-12-26T23:37:28.918Z,7.44
2022-12-26T23:39:56.601Z,7.46
2022-12-26T23:42:25.117Z,7.44
2022-12-26T23:44:52.836Z,7.47
2022-12-26T23:47:20.938Z,7.57
2022-12-26T23:49:48.574Z,7.67
2022-12-26T23:52:16.537Z,7.74
2022-12-26T23:54:44.238Z,7.66
2022-12-26T23:57:12.182Z,7.66
2022-12-26T23:59:39.983Z,7.60
